createdAt,value
2023-03-02T00:01:10.838Z,0.25
2023-03-02T00:04:26.416Z,0.21
2023-03-02T00:07:32.064Z,0.22
2023-03-02T00:10:34.676Z,0.18
2023-03-02T00:13:37.496Z,0.15
2023-03-02T00:16:40.317Z,0.11
2023-03-02T00:19:42.498Z,0.04
2023-03-02T00:22:45.889Z,0.01
2023-03-02T00:25:47.962Z,-0.02
2023-03-02T00:28:49.839Z,-0.15
2023-03-02T00:31:51.819Z,-0.43
2023-03-02T00:34:53.959Z,-0.33
2023-03-02T00:37:55.750Z,-0.28
2023-03-02T00:40:59.352Z,-0.29
2023-03-02T00:44:01.390Z,-0.25
2023-03-02T00:47:03.385Z,-0.44
2023-03-02T00:50:06.819Z,-0.51
2023-03-02T00:53:10.412Z,-0.48
2023-03-02T00:56:12.288Z,-0.43
2023-03-02T00:59:30.513Z,-0.36
2023-03-02T01:02:32.610Z,-0.27
2023-03-02T01:05:37.293Z,-0.30
2023-03-02T01:08:39.107Z,-0.95
2023-03-02T01:11:41.208Z,-1.12
2023-03-02T01:14:45.781Z,-1.27
2023-03-02T01:17:47.723Z,-1.34
2023-03-02T01:20:51.030Z,-1.15
2023-03-02T01:23:53.107Z,-1.23
2023-03-02T01:26:55.317Z,-1.12
2023-03-02T01:29:57.850Z,-1.20
2023-03-02T01:33:00.222Z,-1.05
2023-03-02T01:36:02.290Z,-0.91
2023-03-02T01:39:05.016Z,-1.19
2023-03-02T01:42:07.072Z,-1.31
2023-03-02T01:45:48.254Z,-1.18
2023-03-02T01:49:03.280Z,-0.93
2023-03-02T01:52:05.127Z,-0.79
2023-03-02T01:55:09.474Z,-1.18
2023-03-02T01:58:14.084Z,-1.21
2023-03-02T02:01:16.321Z,-1.24
2023-03-02T02:04:19.323Z,-1.10
2023-03-02T02:07:21.094Z,-0.98
2023-03-02T02:10:23.348Z,-0.95
2023-03-02T02:13:25.433Z,-0.90
2023-03-02T02:16:28.597Z,-0.88
2023-03-02T02:19:57.725Z,-0.77
2023-03-02T02:23:18.372Z,-0.75
2023-03-02T02:26:26.062Z,-0.79
2023-03-02T02:29:33.115Z,-0.72
2023-03-02T02:32:37.489Z,-0.79
2023-03-02T02:35:40.272Z,-0.82
2023-03-02T02:38:42.747Z,-0.78
2023-03-02T02:41:47.004Z,-0.67
2023-03-02T02:44:48.852Z,-0.66
2023-03-02T02:47:51.704Z,-0.54
2023-03-02T02:51:00.381Z,-0.46
2023-03-02T02:54:04.197Z,-0.36
2023-03-02T02:57:06.730Z,-0.32
2023-03-02T03:00:18.232Z,-0.28
2023-03-02T03:03:39.506Z,-0.22
2023-03-02T03:07:10.059Z,-0.17
2023-03-02T03:10:31.295Z,-0.09
2023-03-02T03:13:33.241Z,-0.06
2023-03-02T03:16:36.993Z,-0.02
2023-03-02T03:19:41.907Z,-0.04
2023-03-02T03:22:43.936Z,-0.03
2023-03-02T03:25:45.697Z,-0.06
2023-03-02T03:28:47.837Z,-0.17
2023-03-02T03:31:54.887Z,-0.10
2023-03-02T03:34:56.715Z,-0.08
2023-03-02T03:37:58.616Z,0.09
2023-03-02T03:41:00.535Z,0.14
2023-03-02T03:44:02.532Z,0.20
2023-03-02T03:47:04.403Z,0.21
2023-03-02T03:50:06.845Z,0.41
2023-03-02T03:53:09.420Z,0.48
2023-03-02T03:56:11.840Z,0.65
2023-03-02T03:59:17.102Z,0.69
2023-03-02T04:02:19.312Z,0.97
2023-03-02T04:05:21.352Z,1.00
2023-03-02T04:08:23.198Z,0.93
2023-03-02T04:11:25.062Z,0.97
2023-03-02T04:14:26.863Z,0.95
2023-03-02T04:17:29.206Z,0.96
2023-03-02T04:20:31.792Z,1.02
2023-03-02T04:23:36.157Z,0.98
2023-03-02T04:26:39.268Z,0.94
2023-03-02T04:29:41.783Z,1.04
2023-03-02T04:32:46.762Z,1.01
2023-03-02T04:35:48.577Z,1.06
2023-03-02T04:38:50.730Z,0.97
2023-03-02T04:41:53.713Z,0.87
2023-03-02T04:44:55.500Z,0.88
2023-03-02T04:47:57.364Z,0.83
2023-03-02T04:50:59.305Z,0.80
2023-03-02T04:54:04.571Z,0.86
2023-03-02T04:57:08.427Z,0.86
2023-03-02T05:00:12.892Z,0.82
2023-03-02T05:03:18.868Z,0.82
2023-03-02T05:06:21.859Z,0.84
2023-03-02T05:09:27.470Z,0.80
2023-03-02T05:12:29.298Z,0.75
2023-03-02T05:15:34.711Z,0.73
2023-03-02T05:18:36.489Z,0.64
2023-03-02T05:21:39.066Z,0.69
2023-03-02T05:24:40.883Z,0.63
2023-03-02T05:27:42.704Z,0.66
2023-03-02T05:30:45.602Z,0.59
2023-03-02T05:33:48.246Z,0.47
2023-03-02T05:36:50.211Z,0.07
2023-03-02T05:39:52.881Z,-0.20
2023-03-02T05:42:54.752Z,-0.15
2023-03-02T05:46:00.621Z,-0.36
2023-03-02T05:49:02.482Z,-0.31
2023-03-02T05:52:04.469Z,-0.37
2023-03-02T05:55:06.819Z,-0.32
2023-03-02T05:58:16.490Z,-0.40
2023-03-02T06:01:18.380Z,0.82
2023-03-02T06:04:20.216Z,4.41
2023-03-02T06:07:21.958Z,5.89
2023-03-02T06:10:24.811Z,7.15
2023-03-02T06:13:28.062Z,6.19
2023-03-02T06:16:31.538Z,4.13
2023-03-02T06:19:33.858Z,3.19
2023-03-02T06:22:41.297Z,3.02
2023-03-02T06:25:48.217Z,2.85
2023-03-02T06:28:53.258Z,2.63
2023-03-02T06:31:55.551Z,2.60
2023-03-02T06:34:57.520Z,2.99
2023-03-02T06:37:59.298Z,5.20
2023-03-02T06:41:01.184Z,7.10
2023-03-02T06:44:03.019Z,7.99
2023-03-02T06:47:05.009Z,8.68
2023-03-02T06:50:07.729Z,9.55
2023-03-02T06:53:10.041Z,7.96
2023-03-02T06:56:11.884Z,6.85
2023-03-02T06:59:13.740Z,6.19
2023-03-02T07:02:15.629Z,5.80
2023-03-02T07:05:17.862Z,5.52
2023-03-02T07:08:19.920Z,5.46
2023-03-02T07:11:21.948Z,5.34
2023-03-02T07:14:23.890Z,5.36
2023-03-02T07:17:25.605Z,5.19
2023-03-02T07:20:27.635Z,5.38
2023-03-02T07:23:30.214Z,5.51
2023-03-02T07:26:32.067Z,5.68
2023-03-02T07:29:33.934Z,5.69
2023-03-02T07:32:36.040Z,5.71
2023-03-02T07:35:37.950Z,5.81
2023-03-02T07:38:39.949Z,5.80
2023-03-02T07:41:42.282Z,5.93
2023-03-02T07:44:44.231Z,6.09
2023-03-02T07:47:46.216Z,6.28
2023-03-02T07:50:48.066Z,6.50
2023-03-02T07:53:50.039Z,6.71
2023-03-02T07:56:52.202Z,6.60
2023-03-02T07:59:54.074Z,6.79
2023-03-02T08:02:56.474Z,6.96
2023-03-02T08:05:58.916Z,6.98
2023-03-02T08:09:03.523Z,7.16
2023-03-02T08:12:05.446Z,7.30
2023-03-02T08:15:07.946Z,7.40
2023-03-02T08:18:10.155Z,7.66
2023-03-02T08:21:20.447Z,7.73
2023-03-02T08:24:22.547Z,7.84
2023-03-02T08:27:24.811Z,7.95
2023-03-02T08:30:27.569Z,7.94
2023-03-02T08:33:30.891Z,7.94
2023-03-02T08:36:33.266Z,8.33
2023-03-02T08:39:35.455Z,8.58
2023-03-02T08:42:37.179Z,8.78
2023-03-02T08:45:39.113Z,8.96
2023-03-02T08:48:41.393Z,9.20
2023-03-02T08:51:43.549Z,9.08
2023-03-02T08:54:45.467Z,9.36
2023-03-02T08:57:47.734Z,9.46
2023-03-02T09:00:51.368Z,9.63
2023-03-02T09:03:53.361Z,9.83
2023-03-02T09:06:55.458Z,9.92
2023-03-02T09:09:57.434Z,9.96
2023-03-02T09:12:59.501Z,9.98
2023-03-02T09:16:01.913Z,10.34
2023-03-02T09:19:04.234Z,10.58
2023-03-02T09:22:06.212Z,10.82
2023-03-02T09:25:08.460Z,10.92
2023-03-02T09:28:10.959Z,10.73
2023-03-02T09:31:13.097Z,11.00
2023-03-02T09:34:14.876Z,11.35
2023-03-02T09:37:16.790Z,11.45
2023-03-02T09:40:23.797Z,11.83
2023-03-02T09:43:45.088Z,12.07
2023-03-02T09:46:52.615Z,12.26
2023-03-02T09:50:03.610Z,11.80
2023-03-02T09:53:34.487Z,12.05
2023-03-02T09:56:39.993Z,12.51
2023-03-02T09:59:44.015Z,12.53
2023-03-02T10:02:54.182Z,12.65
2023-03-02T10:05:56.464Z,12.67
2023-03-02T10:08:58.571Z,11.52
2023-03-02T10:12:31.163Z,11.48
2023-03-02T10:16:14.145Z,11.59
2023-03-02T10:19:25.069Z,11.66
2023-03-02T10:22:37.617Z,11.06
2023-03-02T10:25:50.782Z,11.51
2023-03-02T10:29:08.051Z,11.93
2023-03-02T10:32:09.954Z,12.12
2023-03-02T10:35:28.781Z,12.32
2023-03-02T10:38:32.416Z,12.43
2023-03-02T10:41:41.116Z,12.34
2023-03-02T10:44:48.105Z,12.56
2023-03-02T10:48:11.296Z,12.37
2023-03-02T10:51:27.116Z,12.40
2023-03-02T10:54:30.487Z,12.80
2023-03-02T10:57:43.445Z,12.83
2023-03-02T11:00:59.743Z,13.41
2023-03-02T11:04:02.534Z,13.46
2023-03-02T11:07:13.481Z,12.94
2023-03-02T11:10:20.253Z,13.29
2023-03-02T11:13:28.103Z,13.29
2023-03-02T11:16:32.272Z,13.30
2023-03-02T11:19:39.082Z,12.70
2023-03-02T11:23:01.447Z,12.93
2023-03-02T11:26:23.576Z,13.08
2023-03-02T11:29:46.764Z,12.20
2023-03-02T11:33:03.172Z,12.53
2023-03-02T11:36:22.473Z,13.12
2023-03-02T11:39:55.578Z,13.37
2023-03-02T11:42:59.977Z,13.76
2023-03-02T11:46:13.853Z,13.45
2023-03-02T11:49:38.355Z,13.53
2023-03-02T11:52:44.888Z,13.01
2023-03-02T11:55:50.693Z,12.77
2023-03-02T11:59:07.168Z,13.28
2023-03-02T12:02:11.693Z,13.51
2023-03-02T12:05:26.895Z,13.15
2023-03-02T12:08:43.845Z,12.90
2023-03-02T12:11:46.189Z,13.36
2023-03-02T12:14:48.007Z,12.85
2023-03-02T12:17:49.817Z,13.57
2023-03-02T12:21:10.989Z,13.85
2023-03-02T12:24:30.594Z,13.81
2023-03-02T12:27:38.745Z,13.90
2023-03-02T12:30:40.762Z,14.11
2023-03-02T12:33:48.154Z,14.15
2023-03-02T12:36:52.477Z,13.97
2023-03-02T12:40:12.602Z,14.25
2023-03-02T12:43:33.795Z,14.26
2023-03-02T12:46:37.165Z,13.99
2023-03-02T12:49:50.154Z,13.89
2023-03-02T12:53:06.229Z,13.78
2023-03-02T12:56:08.980Z,14.20
2023-03-02T12:59:25.843Z,14.30
2023-03-02T13:02:33.635Z,13.87
2023-03-02T13:05:36.383Z,13.88
2023-03-02T13:08:38.213Z,13.44
2023-03-02T13:11:40.133Z,13.61
2023-03-02T13:14:44.643Z,13.60
2023-03-02T13:17:55.976Z,13.57
2023-03-02T13:20:59.173Z,13.70
2023-03-02T13:24:02.191Z,13.80
2023-03-02T13:27:06.665Z,13.38
2023-03-02T13:30:22.885Z,13.42
2023-03-02T13:33:31.210Z,13.44
2023-03-02T13:36:38.534Z,13.68
2023-03-02T13:39:40.339Z,13.57
2023-03-02T13:42:42.324Z,13.40
2023-03-02T13:46:27.020Z,13.56
2023-03-02T13:49:35.318Z,13.50
2023-03-02T13:52:37.413Z,13.40
2023-03-02T13:55:39.922Z,13.34
2023-03-02T13:58:41.689Z,13.38
2023-03-02T14:01:46.570Z,13.24
2023-03-02T14:04:48.783Z,13.18
2023-03-02T14:07:50.588Z,13.36
2023-03-02T14:10:54.578Z,13.21
2023-03-02T14:13:56.430Z,13.13
2023-03-02T14:16:58.276Z,13.23
2023-03-02T14:20:00.588Z,13.22
2023-03-02T14:23:06.842Z,13.22
2023-03-02T14:26:27.980Z,13.23
2023-03-02T14:29:31.931Z,13.09
2023-03-02T14:32:33.897Z,13.30
2023-03-02T14:35:36.359Z,13.25
2023-03-02T14:38:38.253Z,13.17
2023-03-02T14:41:52.937Z,13.06
2023-03-02T14:44:55.743Z,12.88
2023-03-02T14:47:57.745Z,12.92
2023-03-02T14:51:04.021Z,12.79
2023-03-02T14:54:08.738Z,12.81
2023-03-02T14:57:18.230Z,12.80
2023-03-02T15:00:22.131Z,12.77
2023-03-02T15:03:26.726Z,12.75
2023-03-02T15:06:30.613Z,12.63
2023-03-02T15:09:32.554Z,12.53
2023-03-02T15:12:34.466Z,12.39
2023-03-02T15:15:36.723Z,12.35
2023-03-02T15:18:39.059Z,12.30
2023-03-02T15:21:44.843Z,12.13
2023-03-02T15:24:46.630Z,12.07
2023-03-02T15:27:48.727Z,12.04
2023-03-02T15:30:52.504Z,11.91
2023-03-02T15:33:55.882Z,11.75
2023-03-02T15:36:57.748Z,11.72
2023-03-02T15:39:59.607Z,11.60
2023-03-02T15:43:02.396Z,11.49
2023-03-02T15:46:06.101Z,11.41
2023-03-02T15:49:07.911Z,11.32
2023-03-02T15:52:10.553Z,11.18
2023-03-02T15:55:14.712Z,11.03
2023-03-02T15:58:17.837Z,10.89
2023-03-02T16:01:21.087Z,10.78
2023-03-02T16:04:22.976Z,10.61
2023-03-02T16:07:25.026Z,10.48
2023-03-02T16:10:31.987Z,10.33
2023-03-02T16:13:34.676Z,10.18
2023-03-02T16:16:36.627Z,10.10
2023-03-02T16:19:38.952Z,9.97
2023-03-02T16:22:40.734Z,9.86
2023-03-02T16:25:50.021Z,9.76
2023-03-02T16:28:52.112Z,9.60
2023-03-02T16:31:54.110Z,9.42
2023-03-02T16:34:56.242Z,9.24
2023-03-02T16:37:58.030Z,9.11
2023-03-02T16:41:00.186Z,8.98
2023-03-02T16:44:02.379Z,8.85
2023-03-02T16:47:04.391Z,8.70
2023-03-02T16:50:07.115Z,8.59
2023-03-02T16:53:10.104Z,8.47
2023-03-02T16:56:13.174Z,8.27
2023-03-02T16:59:15.368Z,8.18
2023-03-02T17:02:17.213Z,8.03
2023-03-02T17:05:20.523Z,7.87
2023-03-02T17:08:22.627Z,7.72
2023-03-02T17:11:24.888Z,7.62
2023-03-02T17:14:27.821Z,7.50
2023-03-02T17:17:29.688Z,7.41
2023-03-02T17:20:32.969Z,7.33
2023-03-02T17:23:37.141Z,7.23
2023-03-02T17:26:39.446Z,7.10
2023-03-02T17:29:41.786Z,6.97
2023-03-02T17:32:43.820Z,6.76
2023-03-02T17:35:46.358Z,6.34
2023-03-02T17:38:48.359Z,6.04
2023-03-02T17:41:50.202Z,5.82
2023-03-02T17:44:52.802Z,5.78
2023-03-02T17:47:56.344Z,5.64
2023-03-02T17:50:59.124Z,5.60
2023-03-02T17:54:01.303Z,5.59
2023-03-02T17:57:03.327Z,5.54
2023-03-02T18:00:08.803Z,5.54
2023-03-02T18:03:16.908Z,5.44
2023-03-02T18:06:20.675Z,5.40
2023-03-02T18:09:22.997Z,5.40
2023-03-02T18:12:25.604Z,5.35
2023-03-02T18:15:29.093Z,5.30
2023-03-02T18:18:30.981Z,5.24
2023-03-02T18:21:32.973Z,5.12
2023-03-02T18:24:34.780Z,5.10
2023-03-02T18:27:36.807Z,5.07
2023-03-02T18:30:41.896Z,4.97
2023-03-02T18:33:45.308Z,4.88
2023-03-02T18:36:47.949Z,4.84
2023-03-02T18:39:50.158Z,4.79
2023-03-02T18:42:51.993Z,4.78
2023-03-02T18:45:54.300Z,4.74
2023-03-02T18:48:57.012Z,4.62
2023-03-02T18:52:05.779Z,4.58
2023-03-02T18:55:09.205Z,4.49
2023-03-02T18:58:17.533Z,4.43
2023-03-02T19:01:21.414Z,4.30
2023-03-02T19:04:26.548Z,4.26
2023-03-02T19:07:28.957Z,4.19
2023-03-02T19:10:31.789Z,4.16
2023-03-02T19:13:34.271Z,4.10
2023-03-02T19:16:36.580Z,4.06
2023-03-02T19:19:38.690Z,3.83
2023-03-02T19:22:40.898Z,3.82
2023-03-02T19:25:43.579Z,3.68
2023-03-02T19:28:46.134Z,3.43
2023-03-02T19:31:48.534Z,3.49
2023-03-02T19:34:51.605Z,3.51
2023-03-02T19:37:53.801Z,3.52
2023-03-02T19:41:00.496Z,3.53
2023-03-02T19:44:02.540Z,3.53
2023-03-02T19:47:04.699Z,3.51
2023-03-02T19:50:07.776Z,3.49
2023-03-02T19:53:11.436Z,3.47
2023-03-02T19:56:14.981Z,3.28
2023-03-02T19:59:18.044Z,3.25
2023-03-02T20:02:20.071Z,3.22
2023-03-02T20:05:22.291Z,3.19
2023-03-02T20:08:25.045Z,3.23
2023-03-02T20:11:28.849Z,3.19
2023-03-02T20:14:34.056Z,3.19
2023-03-02T20:17:36.419Z,3.17
2023-03-02T20:20:39.032Z,3.14
2023-03-02T20:23:41.360Z,3.11
2023-03-02T20:26:43.887Z,3.10
2023-03-02T20:29:45.894Z,3.10
2023-03-02T20:32:48.636Z,3.06
2023-03-02T20:35:51.190Z,3.04
2023-03-02T20:38:59.752Z,3.00
2023-03-02T20:42:02.129Z,2.92
2023-03-02T20:45:05.011Z,2.89
2023-03-02T20:48:07.383Z,2.52
2023-03-02T20:51:10.622Z,2.36
2023-03-02T20:54:12.756Z,2.43
2023-03-02T20:57:17.405Z,2.45
2023-03-02T21:00:28.350Z,2.41
2023-03-02T21:03:30.483Z,2.35
2023-03-02T21:06:34.515Z,2.31
2023-03-02T21:09:37.690Z,2.25
2023-03-02T21:12:39.676Z,2.12
2023-03-02T21:15:41.975Z,2.07
2023-03-02T21:18:44.153Z,1.97
2023-03-02T21:21:46.183Z,1.87
2023-03-02T21:24:48.014Z,1.77
2023-03-02T21:27:49.801Z,1.76
2023-03-02T21:30:54.922Z,1.74
2023-03-02T21:33:58.149Z,1.70
2023-03-02T21:37:00.318Z,1.65
2023-03-02T21:40:02.066Z,1.59
2023-03-02T21:43:05.635Z,1.56
2023-03-02T21:46:08.703Z,1.55
2023-03-02T21:49:12.366Z,1.53
2023-03-02T21:52:14.127Z,1.50
2023-03-02T21:55:16.108Z,1.39
2023-03-02T21:58:17.924Z,1.39
2023-03-02T22:01:20.178Z,1.40
2023-03-02T22:04:22.154Z,1.34
2023-03-02T22:07:24.127Z,1.10
2023-03-02T22:10:38.643Z,1.22
2023-03-02T22:13:40.543Z,1.18
2023-03-02T22:16:46.461Z,1.14
2023-03-02T22:19:49.637Z,1.11
2023-03-02T22:22:53.324Z,1.07
2023-03-02T22:26:02.003Z,1.06
2023-03-02T22:29:14.378Z,1.01
2023-03-02T22:32:25.053Z,0.99
2023-03-02T22:35:27.842Z,0.91
2023-03-02T22:38:30.988Z,0.92
2023-03-02T22:41:32.821Z,0.83
2023-03-02T22:44:34.662Z,0.83
2023-03-02T22:47:36.468Z,0.88
2023-03-02T22:50:40.617Z,0.88
2023-03-02T22:53:57.627Z,0.84
2023-03-02T22:56:59.424Z,0.82
2023-03-02T23:00:14.171Z,0.86
2023-03-02T23:03:28.535Z,0.79
2023-03-02T23:06:32.473Z,0.78
2023-03-02T23:09:35.691Z,0.74
2023-03-02T23:12:37.550Z,0.70
2023-03-02T23:15:40.090Z,0.70
2023-03-02T23:18:43.196Z,0.70
2023-03-02T23:21:46.513Z,0.69
2023-03-02T23:24:48.341Z,0.69
2023-03-02T23:27:50.181Z,0.56
2023-03-02T23:30:52.013Z,0.60
2023-03-02T23:33:53.816Z,0.63
2023-03-02T23:36:55.624Z,0.60
2023-03-02T23:39:57.370Z,0.53
2023-03-02T23:42:59.209Z,0.55
2023-03-02T23:46:01.469Z,0.29
2023-03-02T23:49:03.319Z,-0.11
2023-03-02T23:52:05.653Z,-0.15
2023-03-02T23:55:08.560Z,-0.29
2023-03-02T23:58:10.324Z,-0.26
